sensor_id;sensor_type;location;lat;lon;timestamp;P1;durP1;ratioP1;P2;durP2;ratioP2
53598;SDS011;39485;45.702;11.364;2023-02-15T00:08:46;4.67;;;4.37;;
53598;SDS011;39485;45.702;11.364;2023-02-15T00:14:46;3.17;;;2.97;;
53598;SDS011;39485;45.702;11.364;2023-02-15T00:18:01;4.73;;;3.33;;
53598;SDS011;39485;45.702;11.364;2023-02-15T00:21:15;7.13;;;5.43;;
53598;SDS011;39485;45.702;11.364;2023-02-15T00:24:31;4.27;;;3.97;;
53598;SDS011;39485;45.702;11.364;2023-02-15T00:31:39;7.13;;;2.22;;
53598;SDS011;39485;45.702;11.364;2023-02-15T00:38:16;4.50;;;3.63;;
53598;SDS011;39485;45.702;11.364;2023-02-15T00:44:47;3.50;;;2.53;;
53598;SDS011;39485;45.702;11.364;2023-02-15T01:16:32;3.97;;;3.67;;
53598;SDS011;39485;45.702;11.364;2023-02-15T01:26:26;2.97;;;2.73;;
53598;SDS011;39485;45.702;11.364;2023-02-15T01:40:33;1.90;;;1.83;;
53598;SDS011;39485;45.702;11.364;2023-02-15T02:10:43;2.00;;;1.83;;
53598;SDS011;39485;45.702;11.364;2023-02-15T03:09:45;2.23;;;2.07;;
53598;SDS011;39485;45.702;11.364;2023-02-15T03:54:26;2.40;;;1.83;;
53598;SDS011;39485;45.702;11.364;2023-02-15T03:57:32;1.43;;;1.43;;
53598;SDS011;39485;45.702;11.364;2023-02-15T04:14:32;2.03;;;1.93;;
53598;SDS011;39485;45.702;11.364;2023-02-15T04:17:40;1.60;;;1.50;;
53598;SDS011;39485;45.702;11.364;2023-02-15T04:27:37;2.37;;;2.17;;
53598;SDS011;39485;45.702;11.364;2023-02-15T04:40:13;1.33;;;1.23;;
53598;SDS011;39485;45.702;11.364;2023-02-15T04:43:19;1.17;;;1.17;;
53598;SDS011;39485;45.702;11.364;2023-02-15T04:46:22;0.87;;;0.87;;
53598;SDS011;39485;45.702;11.364;2023-02-15T04:56:23;2.63;;;1.20;;
53598;SDS011;39485;45.702;11.364;2023-02-15T04:59:30;2.70;;;2.43;;
53598;SDS011;39485;45.702;11.364;2023-02-15T05:09:41;0.93;;;0.93;;
53598;SDS011;39485;45.702;11.364;2023-02-15T05:25:51;1.43;;;1.33;;
53598;SDS011;39485;45.702;11.364;2023-02-15T05:29:09;1.07;;;1.07;;
53598;SDS011;39485;45.702;11.364;2023-02-15T05:32:07;1.47;;;1.47;;
53598;SDS011;39485;45.702;11.364;2023-02-15T05:46:06;3.97;;;1.40;;
53598;SDS011;39485;45.702;11.364;2023-02-15T06:03:53;4.90;;;1.37;;
53598;SDS011;39485;45.702;11.364;2023-02-15T06:07:08;1.45;;;1.42;;
53598;SDS011;39485;45.702;11.364;2023-02-15T06:10:17;4.07;;;1.93;;
53598;SDS011;39485;45.702;11.364;2023-02-15T06:16:32;2.47;;;1.93;;
53598;SDS011;39485;45.702;11.364;2023-02-15T06:19:28;7.37;;;1.53;;
53598;SDS011;39485;45.702;11.364;2023-02-15T06:32:56;0.90;;;0.90;;
53598;SDS011;39485;45.702;11.364;2023-02-15T06:36:10;4.87;;;1.97;;
53598;SDS011;39485;45.702;11.364;2023-02-15T06:42:02;6.28;;;2.83;;
53598;SDS011;39485;45.702;11.364;2023-02-15T06:44:47;1.40;;;1.30;;
53598;SDS011;39485;45.702;11.364;2023-02-15T06:47:27;1.50;;;1.43;;
53598;SDS011;39485;45.702;11.364;2023-02-15T06:54:28;1.90;;;1.80;;
53598;SDS011;39485;45.702;11.364;2023-02-15T07:00:16;2.37;;;1.67;;
53598;SDS011;39485;45.702;11.364;2023-02-15T07:06:29;1.13;;;0.97;;
53598;SDS011;39485;45.702;11.364;2023-02-15T07:08:59;1.57;;;1.47;;
53598;SDS011;39485;45.702;11.364;2023-02-15T07:12:06;1.83;;;1.70;;
53598;SDS011;39485;45.702;11.364;2023-02-15T07:18:23;3.33;;;2.03;;
53598;SDS011;39485;45.702;11.364;2023-02-15T07:24:57;2.17;;;1.35;;
53598;SDS011;39485;45.702;11.364;2023-02-15T07:28:08;0.93;;;0.93;;
53598;SDS011;39485;45.702;11.364;2023-02-15T07:34:24;5.67;;;1.27;;
53598;SDS011;39485;45.702;11.364;2023-02-15T07:37:22;1.03;;;0.87;;
53598;SDS011;39485;45.702;11.364;2023-02-15T07:43:45;1.00;;;1.00;;
53598;SDS011;39485;45.702;11.364;2023-02-15T07:56:49;1.50;;;1.40;;
53598;SDS011;39485;45.702;11.364;2023-02-15T07:59:53;2.33;;;1.40;;
53598;SDS011;39485;45.702;11.364;2023-02-15T08:03:18;2.23;;;1.00;;
53598;SDS011;39485;45.702;11.364;2023-02-15T08:09:47;3.55;;;1.27;;
53598;SDS011;39485;45.702;11.364;2023-02-15T08:19:43;0.60;;;0.55;;
53598;SDS011;39485;45.702;11.364;2023-02-15T08:26:06;1.70;;;1.00;;
53598;SDS011;39485;45.702;11.364;2023-02-15T09:10:19;5.38;;;1.35;;
53598;SDS011;39485;45.702;11.364;2023-02-15T09:17:15;3.33;;;1.30;;
53598;SDS011;39485;45.702;11.364;2023-02-15T09:27:39;0.57;;;0.55;;
53598;SDS011;39485;45.702;11.364;2023-02-15T09:31:13;2.50;;;2.25;;
53598;SDS011;39485;45.702;11.364;2023-02-15T09:34:58;4.32;;;2.25;;
53598;SDS011;39485;45.702;11.364;2023-02-15T09:37:35;0.63;;;0.63;;
53598;SDS011;39485;45.702;11.364;2023-02-15T09:40:58;3.20;;;1.65;;
53598;SDS011;39485;45.702;11.364;2023-02-15T09:44:07;7.28;;;3.45;;
53598;SDS011;39485;45.702;11.364;2023-02-15T09:56:39;2.92;;;1.70;;
53598;SDS011;39485;45.702;11.364;2023-02-15T10:00:10;1.63;;;1.52;;
53598;SDS011;39485;45.702;11.364;2023-02-15T10:02:40;5.43;;;2.00;;
53598;SDS011;39485;45.702;11.364;2023-02-15T10:05:35;1.73;;;1.63;;
53598;SDS011;39485;45.702;11.364;2023-02-15T10:26:32;2.30;;;1.45;;
53598;SDS011;39485;45.702;11.364;2023-02-15T10:32:35;2.13;;;2.00;;
53598;SDS011;39485;45.702;11.364;2023-02-15T10:35:34;2.60;;;1.38;;
53598;SDS011;39485;45.702;11.364;2023-02-15T10:38:38;1.08;;;1.08;;
53598;SDS011;39485;45.702;11.364;2023-02-15T10:54:46;2.20;;;2.08;;
53598;SDS011;39485;45.702;11.364;2023-02-15T11:07:18;1.88;;;1.77;;
53598;SDS011;39485;45.702;11.364;2023-02-15T11:10:01;2.17;;;1.67;;
53598;SDS011;39485;45.702;11.364;2023-02-15T11:12:44;2.92;;;1.67;;
53598;SDS011;39485;45.702;11.364;2023-02-15T11:18:08;1.75;;;1.65;;
53598;SDS011;39485;45.702;11.364;2023-02-15T11:20:45;1.58;;;1.05;;
53598;SDS011;39485;45.702;11.364;2023-02-15T11:23:19;3.63;;;1.67;;
53598;SDS011;39485;45.702;11.364;2023-02-15T11:25:54;0.80;;;0.47;;
53598;SDS011;39485;45.702;11.364;2023-02-15T11:28:32;1.25;;;1.15;;
53598;SDS011;39485;45.702;11.364;2023-02-15T11:31:15;1.52;;;1.40;;
53598;SDS011;39485;45.702;11.364;2023-02-15T11:34:00;3.45;;;1.35;;
53598;SDS011;39485;45.702;11.364;2023-02-15T11:36:33;2.25;;;2.05;;
53598;SDS011;39485;45.702;11.364;2023-02-15T11:39:11;1.77;;;1.48;;
53598;SDS011;39485;45.702;11.364;2023-02-15T11:41:46;9.40;;;1.83;;
53598;SDS011;39485;45.702;11.364;2023-02-15T11:44:22;1.80;;;1.67;;
53598;SDS011;39485;45.702;11.364;2023-02-15T11:47:13;2.17;;;1.48;;
53598;SDS011;39485;45.702;11.364;2023-02-15T11:49:57;6.85;;;2.17;;
53598;SDS011;39485;45.702;11.364;2023-02-15T11:52:25;2.70;;;1.40;;
53598;SDS011;39485;45.702;11.364;2023-02-15T11:54:57;3.60;;;2.53;;
53598;SDS011;39485;45.702;11.364;2023-02-15T11:57:32;8.45;;;1.48;;
53598;SDS011;39485;45.702;11.364;2023-02-15T12:03:07;1.95;;;0.93;;
53598;SDS011;39485;45.702;11.364;2023-02-15T12:05:45;1.90;;;1.80;;
53598;SDS011;39485;45.702;11.364;2023-02-15T12:08:34;7.88;;;2.58;;
53598;SDS011;39485;45.702;11.364;2023-02-15T12:11:35;0.65;;;0.65;;
53598;SDS011;39485;45.702;11.364;2023-02-15T12:19:47;2.92;;;1.85;;
53598;SDS011;39485;45.702;11.364;2023-02-15T12:25:24;1.95;;;1.85;;
53598;SDS011;39485;45.702;11.364;2023-02-15T12:28:28;2.35;;;2.00;;
53598;SDS011;39485;45.702;11.364;2023-02-15T12:31:25;2.58;;;2.10;;
53598;SDS011;39485;45.702;11.364;2023-02-15T12:34:45;1.50;;;1.40;;
53598;SDS011;39485;45.702;11.364;2023-02-15T12:37:55;5.57;;;2.78;;
53598;SDS011;39485;45.702;11.364;2023-02-15T12:41:28;1.38;;;1.35;;
53598;SDS011;39485;45.702;11.364;2023-02-15T12:47:21;6.95;;;3.10;;
53598;SDS011;39485;45.702;11.364;2023-02-15T12:53:12;2.22;;;2.13;;
53598;SDS011;39485;45.702;11.364;2023-02-15T12:55:54;4.32;;;2.42;;
53598;SDS011;39485;45.702;11.364;2023-02-15T12:58:46;2.78;;;2.58;;
53598;SDS011;39485;45.702;11.364;2023-02-15T13:01:40;2.55;;;2.38;;
53598;SDS011;39485;45.702;11.364;2023-02-15T13:04:46;2.85;;;2.65;;
53598;SDS011;39485;45.702;11.364;2023-02-15T13:07:24;7.93;;;1.73;;
53598;SDS011;39485;45.702;11.364;2023-02-15T13:10:00;1.08;;;1.08;;
53598;SDS011;39485;45.702;11.364;2023-02-15T13:12:30;6.43;;;2.88;;
53598;SDS011;39485;45.702;11.364;2023-02-15T13:15:21;3.47;;;2.00;;
53598;SDS011;39485;45.702;11.364;2023-02-15T13:17:56;3.90;;;2.63;;
53598;SDS011;39485;45.702;11.364;2023-02-15T13:20:28;1.60;;;1.50;;
53598;SDS011;39485;45.702;11.364;2023-02-15T13:23:04;3.85;;;2.25;;
53598;SDS011;39485;45.702;11.364;2023-02-15T13:25:47;5.63;;;2.78;;
53598;SDS011;39485;45.702;11.364;2023-02-15T13:28:16;2.88;;;2.67;;
53598;SDS011;39485;45.702;11.364;2023-02-15T13:30:48;6.05;;;2.70;;
53598;SDS011;39485;45.702;11.364;2023-02-15T13:33:21;2.13;;;2.03;;
53598;SDS011;39485;45.702;11.364;2023-02-15T13:39:36;3.90;;;2.50;;
53598;SDS011;39485;45.702;11.364;2023-02-15T13:48:37;5.22;;;3.00;;
53598;SDS011;39485;45.702;11.364;2023-02-15T14:13:05;7.40;;;4.22;;
53598;SDS011;39485;45.702;11.364;2023-02-15T14:22:25;6.75;;;1.90;;
53598;SDS011;39485;45.702;11.364;2023-02-15T14:25:15;5.90;;;2.50;;
53598;SDS011;39485;45.702;11.364;2023-02-15T14:31:35;6.82;;;3.90;;
53598;SDS011;39485;45.702;11.364;2023-02-15T14:37:45;4.53;;;2.42;;
53598;SDS011;39485;45.702;11.364;2023-02-15T14:56:29;2.47;;;1.95;;
53598;SDS011;39485;45.702;11.364;2023-02-15T14:58:58;3.25;;;2.60;;
53598;SDS011;39485;45.702;11.364;2023-02-15T15:01:55;3.25;;;2.25;;
53598;SDS011;39485;45.702;11.364;2023-02-15T15:04:28;6.38;;;2.47;;
53598;SDS011;39485;45.702;11.364;2023-02-15T15:09:42;2.15;;;2.05;;
53598;SDS011;39485;45.702;11.364;2023-02-15T15:15:58;6.43;;;3.92;;
53598;SDS011;39485;45.702;11.364;2023-02-15T15:18:57;2.55;;;1.42;;
53598;SDS011;39485;45.702;11.364;2023-02-15T15:21:53;3.00;;;2.75;;
53598;SDS011;39485;45.702;11.364;2023-02-15T15:27:52;3.33;;;2.58;;
53598;SDS011;39485;45.702;11.364;2023-02-15T15:43:40;4.22;;;1.58;;
53598;SDS011;39485;45.702;11.364;2023-02-15T15:46:43;2.05;;;1.95;;
53598;SDS011;39485;45.702;11.364;2023-02-15T15:49:37;1.77;;;1.67;;
53598;SDS011;39485;45.702;11.364;2023-02-15T15:52:17;2.97;;;2.22;;
53598;SDS011;39485;45.702;11.364;2023-02-15T15:55:03;2.55;;;2.35;;
53598;SDS011;39485;45.702;11.364;2023-02-15T15:58:04;1.83;;;1.67;;
53598;SDS011;39485;45.702;11.364;2023-02-15T16:00:41;2.08;;;1.85;;
53598;SDS011;39485;45.702;11.364;2023-02-15T16:06:04;5.25;;;2.55;;
53598;SDS011;39485;45.702;11.364;2023-02-15T16:11:51;4.05;;;3.15;;
53598;SDS011;39485;45.702;11.364;2023-02-15T16:15:13;11.27;;;5.57;;
53598;SDS011;39485;45.702;11.364;2023-02-15T16:17:52;7.45;;;5.00;;
53598;SDS011;39485;45.702;11.364;2023-02-15T16:20:32;7.82;;;6.75;;
53598;SDS011;39485;45.702;11.364;2023-02-15T16:33:34;11.63;;;7.82;;
53598;SDS011;39485;45.702;11.364;2023-02-15T16:36:38;15.90;;;7.00;;
53598;SDS011;39485;45.702;11.364;2023-02-15T16:39:22;15.15;;;8.27;;
53598;SDS011;39485;45.702;11.364;2023-02-15T16:41:55;23.52;;;9.70;;
53598;SDS011;39485;45.702;11.364;2023-02-15T16:44:27;19.55;;;10.65;;
53598;SDS011;39485;45.702;11.364;2023-02-15T16:47:01;13.75;;;10.50;;
53598;SDS011;39485;45.702;11.364;2023-02-15T16:49:36;17.67;;;8.63;;
53598;SDS011;39485;45.702;11.364;2023-02-15T16:52:25;11.23;;;6.70;;
53598;SDS011;39485;45.702;11.364;2023-02-15T16:54:54;11.52;;;7.28;;
53598;SDS011;39485;45.702;11.364;2023-02-15T16:57:27;8.63;;;7.85;;
53598;SDS011;39485;45.702;11.364;2023-02-15T17:00:00;18.42;;;10.80;;
53598;SDS011;39485;45.702;11.364;2023-02-15T17:02:33;13.05;;;9.50;;
53598;SDS011;39485;45.702;11.364;2023-02-15T17:05:01;16.00;;;10.52;;
53598;SDS011;39485;45.702;11.364;2023-02-15T17:08:05;11.65;;;8.32;;
53598;SDS011;39485;45.702;11.364;2023-02-15T17:11:04;11.30;;;6.75;;
53598;SDS011;39485;45.702;11.364;2023-02-15T17:14:28;25.92;;;10.77;;
53598;SDS011;39485;45.702;11.364;2023-02-15T17:17:01;15.00;;;8.00;;
53598;SDS011;39485;45.702;11.364;2023-02-15T17:22:27;15.80;;;8.07;;
53598;SDS011;39485;45.702;11.364;2023-02-15T17:25:02;9.43;;;7.05;;
53598;SDS011;39485;45.702;11.364;2023-02-15T17:27:35;14.98;;;8.63;;
53598;SDS011;39485;45.702;11.364;2023-02-15T17:30:15;9.77;;;6.88;;
53598;SDS011;39485;45.702;11.364;2023-02-15T17:33:17;17.75;;;9.68;;
53598;SDS011;39485;45.702;11.364;2023-02-15T17:36:29;17.05;;;6.57;;
53598;SDS011;39485;45.702;11.364;2023-02-15T17:39:50;18.92;;;8.07;;
53598;SDS011;39485;45.702;11.364;2023-02-15T17:42:23;24.15;;;7.05;;
53598;SDS011;39485;45.702;11.364;2023-02-15T17:45:05;13.95;;;6.97;;
53598;SDS011;39485;45.702;11.364;2023-02-15T17:47:34;22.80;;;9.15;;
53598;SDS011;39485;45.702;11.364;2023-02-15T17:50:10;16.83;;;7.32;;
53598;SDS011;39485;45.702;11.364;2023-02-15T17:53:00;9.77;;;6.70;;
53598;SDS011;39485;45.702;11.364;2023-02-15T17:55:37;19.20;;;5.50;;
53598;SDS011;39485;45.702;11.364;2023-02-15T17:58:37;18.83;;;7.50;;
53598;SDS011;39485;45.702;11.364;2023-02-15T18:01:09;16.17;;;6.85;;
53598;SDS011;39485;45.702;11.364;2023-02-15T18:04:05;9.82;;;6.97;;
53598;SDS011;39485;45.702;11.364;2023-02-15T18:06:57;20.67;;;8.07;;
53598;SDS011;39485;45.702;11.364;2023-02-15T18:09:45;20.98;;;8.85;;
53598;SDS011;39485;45.702;11.364;2023-02-15T18:12:38;18.55;;;7.43;;
53598;SDS011;39485;45.702;11.364;2023-02-15T18:15:05;13.52;;;8.25;;
53598;SDS011;39485;45.702;11.364;2023-02-15T18:17:43;12.35;;;9.02;;
53598;SDS011;39485;45.702;11.364;2023-02-15T18:23:43;7.90;;;6.20;;
53598;SDS011;39485;45.702;11.364;2023-02-15T18:26:16;14.98;;;7.60;;
53598;SDS011;39485;45.702;11.364;2023-02-15T18:28:50;12.88;;;8.10;;
53598;SDS011;39485;45.702;11.364;2023-02-15T18:31:20;11.27;;;8.18;;
53598;SDS011;39485;45.702;11.364;2023-02-15T18:33:49;11.77;;;6.38;;
53598;SDS011;39485;45.702;11.364;2023-02-15T18:36:28;9.57;;;7.50;;
53598;SDS011;39485;45.702;11.364;2023-02-15T18:38:58;15.00;;;9.75;;
53598;SDS011;39485;45.702;11.364;2023-02-15T18:41:39;11.13;;;8.02;;
53598;SDS011;39485;45.702;11.364;2023-02-15T18:44:20;7.82;;;6.63;;
53598;SDS011;39485;45.702;11.364;2023-02-15T18:46:56;17.55;;;10.80;;
53598;SDS011;39485;45.702;11.364;2023-02-15T18:49:24;8.88;;;6.55;;
53598;SDS011;39485;45.702;11.364;2023-02-15T18:52:14;13.77;;;6.72;;
53598;SDS011;39485;45.702;11.364;2023-02-15T18:55:03;12.20;;;7.13;;
53598;SDS011;39485;45.702;11.364;2023-02-15T18:58:02;8.35;;;4.90;;
53598;SDS011;39485;45.702;11.364;2023-02-15T19:00:32;13.88;;;7.55;;
53598;SDS011;39485;45.702;11.364;2023-02-15T19:03:11;10.60;;;7.72;;
53598;SDS011;39485;45.702;11.364;2023-02-15T19:05:44;6.88;;;5.63;;
53598;SDS011;39485;45.702;11.364;2023-02-15T19:08:39;9.82;;;6.57;;
53598;SDS011;39485;45.702;11.364;2023-02-15T19:11:36;12.68;;;7.10;;
53598;SDS011;39485;45.702;11.364;2023-02-15T19:14:26;5.68;;;5.18;;
53598;SDS011;39485;45.702;11.364;2023-02-15T19:16:55;11.40;;;6.57;;
53598;SDS011;39485;45.702;11.364;2023-02-15T19:19:23;7.38;;;6.68;;
53598;SDS011;39485;45.702;11.364;2023-02-15T19:22:05;12.10;;;6.50;;
53598;SDS011;39485;45.702;11.364;2023-02-15T19:24:49;8.90;;;6.15;;
53598;SDS011;39485;45.702;11.364;2023-02-15T19:27:57;12.93;;;7.47;;
53598;SDS011;39485;45.702;11.364;2023-02-15T19:30:25;6.88;;;5.80;;
53598;SDS011;39485;45.702;11.364;2023-02-15T19:32:58;5.72;;;4.97;;
53598;SDS011;39485;45.702;11.364;2023-02-15T19:35:32;11.20;;;5.93;;
53598;SDS011;39485;45.702;11.364;2023-02-15T19:38:03;14.40;;;7.53;;
53598;SDS011;39485;45.702;11.364;2023-02-15T19:40:40;7.18;;;6.15;;
53598;SDS011;39485;45.702;11.364;2023-02-15T19:43:17;12.85;;;7.45;;
53598;SDS011;39485;45.702;11.364;2023-02-15T19:45:52;16.13;;;7.72;;
53598;SDS011;39485;45.702;11.364;2023-02-15T19:48:20;15.32;;;6.95;;
53598;SDS011;39485;45.702;11.364;2023-02-15T19:51:09;12.20;;;6.55;;
53598;SDS011;39485;45.702;11.364;2023-02-15T19:53:41;8.45;;;5.78;;
53598;SDS011;39485;45.702;11.364;2023-02-15T19:56:16;6.37;;;5.80;;
53598;SDS011;39485;45.702;11.364;2023-02-15T19:58:50;6.75;;;6.03;;
53598;SDS011;39485;45.702;11.364;2023-02-15T20:01:38;6.28;;;4.40;;
53598;SDS011;39485;45.702;11.364;2023-02-15T20:04:11;12.48;;;6.53;;
53598;SDS011;39485;45.702;11.364;2023-02-15T20:06:44;10.85;;;7.53;;
53598;SDS011;39485;45.702;11.364;2023-02-15T20:09:23;6.60;;;5.93;;
53598;SDS011;39485;45.702;11.364;2023-02-15T20:11:57;5.13;;;4.73;;
53598;SDS011;39485;45.702;11.364;2023-02-15T20:14:24;6.78;;;5.53;;
53598;SDS011;39485;45.702;11.364;2023-02-15T20:19:37;4.87;;;4.43;;
53598;SDS011;39485;45.702;11.364;2023-02-15T20:22:23;4.45;;;3.17;;
53598;SDS011;39485;45.702;11.364;2023-02-15T20:25:12;10.00;;;6.67;;
53598;SDS011;39485;45.702;11.364;2023-02-15T20:28:07;21.23;;;10.07;;
53598;SDS011;39485;45.702;11.364;2023-02-15T20:30:41;17.57;;;9.03;;
53598;SDS011;39485;45.702;11.364;2023-02-15T20:33:13;12.18;;;5.10;;
53598;SDS011;39485;45.702;11.364;2023-02-15T20:38:59;10.00;;;5.83;;
53598;SDS011;39485;45.702;11.364;2023-02-15T20:41:31;8.10;;;6.57;;
53598;SDS011;39485;45.702;11.364;2023-02-15T20:44:00;14.77;;;7.03;;
53598;SDS011;39485;45.702;11.364;2023-02-15T20:46:52;7.57;;;4.95;;
53598;SDS011;39485;45.702;11.364;2023-02-15T20:49:38;6.60;;;5.83;;
53598;SDS011;39485;45.702;11.364;2023-02-15T20:52:33;20.03;;;5.67;;
53598;SDS011;39485;45.702;11.364;2023-02-15T20:54:59;10.33;;;7.60;;
53598;SDS011;39485;45.702;11.364;2023-02-15T20:57:36;10.50;;;7.23;;
53598;SDS011;39485;45.702;11.364;2023-02-15T21:00:09;6.68;;;5.38;;
53598;SDS011;39485;45.702;11.364;2023-02-15T21:02:54;10.20;;;6.10;;
53598;SDS011;39485;45.702;11.364;2023-02-15T21:08:47;4.70;;;4.40;;
53598;SDS011;39485;45.702;11.364;2023-02-15T21:11:20;7.23;;;6.53;;
53598;SDS011;39485;45.702;11.364;2023-02-15T21:13:52;13.97;;;5.00;;
53598;SDS011;39485;45.702;11.364;2023-02-15T21:17:01;8.40;;;4.67;;
53598;SDS011;39485;45.702;11.364;2023-02-15T21:19:42;9.30;;;5.33;;
53598;SDS011;39485;45.702;11.364;2023-02-15T21:22:11;14.90;;;5.17;;
53598;SDS011;39485;45.702;11.364;2023-02-15T21:24:46;5.17;;;4.63;;
53598;SDS011;39485;45.702;11.364;2023-02-15T21:27:14;4.60;;;3.33;;
53598;SDS011;39485;45.702;11.364;2023-02-15T21:29:41;2.87;;;2.67;;
53598;SDS011;39485;45.702;11.364;2023-02-15T21:32:10;24.57;;;6.70;;
53598;SDS011;39485;45.702;11.364;2023-02-15T21:35:00;11.23;;;5.47;;
53598;SDS011;39485;45.702;11.364;2023-02-15T21:37:32;5.50;;;5.00;;
53598;SDS011;39485;45.702;11.364;2023-02-15T21:42:43;4.87;;;4.40;;
53598;SDS011;39485;45.702;11.364;2023-02-15T21:45:35;8.48;;;7.03;;
53598;SDS011;39485;45.702;11.364;2023-02-15T21:48:43;17.25;;;5.57;;
53598;SDS011;39485;45.702;11.364;2023-02-15T21:51:34;10.40;;;5.77;;
53598;SDS011;39485;45.702;11.364;2023-02-15T21:54:39;13.32;;;5.22;;
53598;SDS011;39485;45.702;11.364;2023-02-15T21:57:13;5.77;;;3.70;;
53598;SDS011;39485;45.702;11.364;2023-02-15T22:03:40;10.13;;;4.50;;
53598;SDS011;39485;45.702;11.364;2023-02-15T22:06:27;9.13;;;6.35;;
53598;SDS011;39485;45.702;11.364;2023-02-15T22:09:38;3.63;;;3.33;;
53598;SDS011;39485;45.702;11.364;2023-02-15T22:12:07;2.58;;;2.45;;
53598;SDS011;39485;45.702;11.364;2023-02-15T22:14:52;5.50;;;4.83;;
53598;SDS011;39485;45.702;11.364;2023-02-15T22:17:21;15.60;;;5.10;;
53598;SDS011;39485;45.702;11.364;2023-02-15T22:20:15;14.23;;;6.88;;
53598;SDS011;39485;45.702;11.364;2023-02-15T22:23:08;8.40;;;5.17;;
53598;SDS011;39485;45.702;11.364;2023-02-15T22:25:56;7.97;;;5.47;;
53598;SDS011;39485;45.702;11.364;2023-02-15T22:28:32;7.03;;;5.60;;
53598;SDS011;39485;45.702;11.364;2023-02-15T22:31:03;12.80;;;5.87;;
53598;SDS011;39485;45.702;11.364;2023-02-15T22:33:38;8.95;;;6.20;;
53598;SDS011;39485;45.702;11.364;2023-02-15T22:36:17;11.40;;;6.83;;
53598;SDS011;39485;45.702;11.364;2023-02-15T22:38:50;6.90;;;4.73;;
53598;SDS011;39485;45.702;11.364;2023-02-15T22:41:22;13.50;;;6.35;;
53598;SDS011;39485;45.702;11.364;2023-02-15T22:43:54;3.63;;;3.33;;
53598;SDS011;39485;45.702;11.364;2023-02-15T22:46:24;4.37;;;3.73;;
53598;SDS011;39485;45.702;11.364;2023-02-15T22:48:55;4.80;;;3.13;;
53598;SDS011;39485;45.702;11.364;2023-02-15T22:51:24;3.97;;;3.67;;
53598;SDS011;39485;45.702;11.364;2023-02-15T22:54:17;3.80;;;3.50;;
53598;SDS011;39485;45.702;11.364;2023-02-15T22:57:17;10.30;;;3.80;;
53598;SDS011;39485;45.702;11.364;2023-02-15T23:00:06;11.13;;;5.63;;
53598;SDS011;39485;45.702;11.364;2023-02-15T23:02:51;6.93;;;3.55;;
53598;SDS011;39485;45.702;11.364;2023-02-15T23:05:28;3.57;;;3.27;;
53598;SDS011;39485;45.702;11.364;2023-02-15T23:07:59;9.17;;;5.60;;
53598;SDS011;39485;45.702;11.364;2023-02-15T23:10:26;6.47;;;4.07;;
53598;SDS011;39485;45.702;11.364;2023-02-15T23:12:57;5.87;;;4.07;;
53598;SDS011;39485;45.702;11.364;2023-02-15T23:15:53;10.38;;;5.22;;
53598;SDS011;39485;45.702;11.364;2023-02-15T23:18:27;5.30;;;3.67;;
53598;SDS011;39485;45.702;11.364;2023-02-15T23:20:54;6.40;;;4.63;;
53598;SDS011;39485;45.702;11.364;2023-02-15T23:23:38;14.47;;;5.43;;
53598;SDS011;39485;45.702;11.364;2023-02-15T23:26:17;8.70;;;5.77;;
53598;SDS011;39485;45.702;11.364;2023-02-15T23:29:18;3.93;;;3.63;;
53598;SDS011;39485;45.702;11.364;2023-02-15T23:38:47;4.53;;;3.30;;
53598;SDS011;39485;45.702;11.364;2023-02-15T23:41:41;3.77;;;3.47;;
53598;SDS011;39485;45.702;11.364;2023-02-15T23:44:15;3.03;;;2.83;;
53598;SDS011;39485;45.702;11.364;2023-02-15T23:46:48;7.67;;;3.97;;
53598;SDS011;39485;45.702;11.364;2023-02-15T23:49:21;2.87;;;2.67;;
53598;SDS011;39485;45.702;11.364;2023-02-15T23:51:51;3.92;;;3.45;;
53598;SDS011;39485;45.702;11.364;2023-02-15T23:54:27;10.10;;;5.57;;
53598;SDS011;39485;45.702;11.364;2023-02-15T23:56:59;2.80;;;2.10;;
53598;SDS011;39485;45.702;11.364;2023-02-15T23:59:50;2.93;;;2.63;;
